Time;durP1;ratioP1;P1;durP2;ratioP2;P2;SDS_P1;SDS_P2;PMS_P1;PMS_P2;Temp;Humidity;BMP_temperature;BMP_pressure;BME280_temperature;BME280_humidity;BME280_pressure;Samples;Min_cycle;Max_cycle;Signal;HPM_P1;HPM_P2
2021/06/13 00:02:08;;;;;;;6.55;2.08;;;;;;;19.78;62.44;102115.09;4942089;29;20102;-44
2021/06/13 00:04:35;;;;;;;7.75;1.85;;;;;;;19.71;62.59;102110.19;4955357;29;20043;-44
2021/06/13 00:07:02;;;;;;;6.10;2.13;;;;;;;19.70;62.70;102125.41;4939497;29;20456;-45
2021/06/13 00:09:29;;;;;;;6.78;2.03;;;;;;;19.65;62.84;102116.47;4935099;29;20054;-44
2021/06/13 00:11:55;;;;;;;8.77;2.83;;;;;;;19.68;62.98;102121.34;4943607;29;20136;-48
2021/06/13 00:14:22;;;;;;;9.88;3.25;;;;;;;19.66;62.92;102118.91;4935474;29;20046;-47
2021/06/13 00:16:52;;;;;;;8.02;2.53;;;;;;;19.62;62.96;102118.03;4943770;29;20472;-47
2021/06/13 00:19:20;;;;;;;7.75;2.47;;;;;;;19.64;62.67;102115.69;4950959;29;20076;-47
2021/06/13 00:21:47;;;;;;;9.07;2.80;;;;;;;19.62;62.46;102111.63;4950069;29;20103;-47
2021/06/13 00:24:13;;;;;;;7.70;3.88;;;;;;;19.56;62.46;102105.50;4932289;29;20071;-47
2021/06/13 00:26:43;;;;;;;16.58;3.25;;;;;;;19.50;62.72;102098.56;4942697;29;20047;-48
2021/06/13 00:29:10;;;;;;;10.68;2.63;;;;;;;19.52;62.53;102104.59;4922004;29;20059;-47
2021/06/13 00:31:37;;;;;;;6.60;3.20;;;;;;;19.52;62.43;102103.78;4952164;29;20063;-47
2021/06/13 00:34:03;;;;;;;9.32;2.70;;;;;;;19.49;62.66;102098.91;4943990;29;20107;-46
2021/06/13 00:36:31;;;;;;;8.57;2.50;;;;;;;19.43;62.74;102102.03;4921079;29;20431;-44
2021/06/13 00:38:58;;;;;;;11.63;2.67;;;;;;;19.45;62.11;102098.88;4947330;29;20048;-46
2021/06/13 00:41:25;;;;;;;5.68;2.17;;;;;;;19.40;62.10;102105.59;4945005;29;20052;-46
2021/06/13 00:43:52;;;;;;;5.38;2.00;;;;;;;19.40;62.00;102099.19;4929892;29;20493;-48
2021/06/13 00:46:19;;;;;;;8.13;2.70;;;;;;;19.39;61.84;102094.72;4941979;29;20122;-48
2021/06/13 00:48:46;;;;;;;6.97;2.30;;;;;;;19.36;61.57;102103.88;4953857;29;20039;-49
2021/06/13 00:51:13;;;;;;;9.05;2.60;;;;;;;19.34;61.38;102095.81;4936744;29;20071;-47
2021/06/13 00:53:40;;;;;;;6.13;2.28;;;;;;;19.36;61.16;102095.44;4938561;29;20087;-48
2021/06/13 00:56:07;;;;;;;7.90;2.25;;;;;;;19.40;61.23;102099.19;4954311;29;20047;-46
2021/06/13 00:58:34;;;;;;;5.90;2.13;;;;;;;19.41;60.88;102089.53;4947065;29;20556;-46
2021/06/13 01:01:02;;;;;;;9.98;2.33;;;;;;;19.45;60.56;102093.25;4949550;28;20141;-45
2021/06/13 01:03:31;;;;;;;8.15;2.58;;;;;;;19.45;60.30;102090.44;4936978;29;20057;-50
2021/06/13 01:05:58;;;;;;;9.95;2.10;;;;;;;19.42;60.07;102086.38;4955485;29;20382;-47
2021/06/13 01:08:40;;;;;;;6.43;2.35;;;;;;;19.37;60.47;102077.41;4928514;29;20160;-46
2021/06/13 01:11:18;;;;;;;11.95;2.83;;;;;;;19.40;60.45;102076.69;4949954;29;20090;-46
2021/06/13 01:14:08;;;;;;;13.07;1.90;;;;;;;19.37;60.51;102078.25;4937831;29;20161;-49
2021/06/13 01:16:53;;;;;;;8.38;2.83;;;;;;;19.38;60.40;102076.25;4924578;29;20067;-47
2021/06/13 01:19:42;;;;;;;15.57;5.10;;;;;;;19.34;60.52;102072.53;4949158;29;20122;-47
2021/06/13 01:22:38;;;;;;;9.70;2.38;;;;;;;19.37;60.39;102077.41;4935286;29;20053;-48
2021/06/13 01:25:23;;;;;;;7.72;2.50;;;;;;;19.38;60.37;102065.00;4928668;29;20082;-47
2021/06/13 01:28:21;;;;;;;7.80;2.13;;;;;;;19.37;60.22;102071.78;4950892;29;20044;-47
2021/06/13 01:30:50;;;;;;;4.75;2.05;;;;;;;19.34;60.43;102064.13;4938163;29;20085;-47
2021/06/13 01:33:17;;;;;;;7.70;2.70;;;;;;;19.30;60.31;102066.06;4954657;29;20078;-44
2021/06/13 01:35:45;;;;;;;9.50;2.75;;;;;;;19.26;60.50;102065.16;4946218;29;20051;-47
2021/06/13 01:38:15;;;;;;;14.98;3.03;;;;;;;19.26;60.71;102073.59;4954547;29;20074;-47
2021/06/13 01:40:43;;;;;;;6.03;2.15;;;;;;;19.30;60.66;102088.53;4954530;29;20057;-50
2021/06/13 01:43:10;;;;;;;8.32;2.40;;;;;;;19.27;60.80;102075.22;4954068;29;20126;-44
2021/06/13 01:45:40;;;;;;;8.10;2.28;;;;;;;19.26;61.00;102082.81;4941988;29;20047;-44
2021/06/13 01:48:10;;;;;;;15.57;5.47;;;;;;;19.24;61.37;102079.59;4952605;29;20146;-46
2021/06/13 01:50:38;;;;;;;11.27;2.85;;;;;;;19.22;61.47;102073.50;4924453;29;20046;-48
2021/06/13 01:53:11;;;;;;;9.35;3.90;;;;;;;19.18;61.65;102074.63;4947294;29;20082;-45
2021/06/13 01:55:40;;;;;;;5.72;2.50;;;;;;;19.21;61.40;102076.69;4945153;29;20481;-44
2021/06/13 01:58:08;;;;;;;12.15;2.28;;;;;;;19.19;61.61;102081.88;4946509;29;20058;-44
2021/06/13 02:00:37;;;;;;;8.43;2.53;;;;;;;19.15;61.53;102076.19;4938689;29;20043;-47
2021/06/13 02:03:05;;;;;;;9.48;2.40;;;;;;;19.13;61.45;102066.50;4944706;29;20057;-45
2021/06/13 02:05:34;;;;;;;10.60;3.05;;;;;;;19.14;60.94;102068.94;4941115;29;20043;-47
2021/06/13 02:08:00;;;;;;;7.97;3.08;;;;;;;19.19;60.70;102065.03;4947790;29;20465;-46
2021/06/13 02:10:28;;;;;;;13.32;3.20;;;;;;;19.20;60.46;102061.03;4945664;29;20079;-46
2021/06/13 02:12:56;;;;;;;7.88;2.40;;;;;;;19.20;60.29;102049.78;4945017;29;20138;-44
2021/06/13 02:15:25;;;;;;;7.47;2.10;;;;;;;19.19;60.02;102051.00;4949107;29;20051;-44
2021/06/13 02:17:57;;;;;;;7.82;2.47;;;;;;;19.14;60.17;102054.13;4950001;29;20117;-47
2021/06/13 02:20:28;;;;;;;8.10;2.35;;;;;;;19.04;60.43;102054.69;4943876;29;20067;-44
2021/06/13 02:22:55;;;;;;;10.20;3.33;;;;;;;18.92;60.97;102057.66;4949916;29;20127;-44
2021/06/13 02:25:23;;;;;;;10.38;2.58;;;;;;;18.83;61.06;102069.13;4924705;29;20138;-44
2021/06/13 02:27:59;;;;;;;5.95;2.85;;;;;;;18.81;61.16;102052.66;4935613;29;20103;-45
2021/06/13 02:30:31;;;;;;;5.97;2.25;;;;;;;18.78;61.18;102056.19;4953616;29;20055;-45
2021/06/13 02:33:01;;;;;;;9.80;3.30;;;;;;;18.67;61.62;102049.53;4939475;29;20111;-44
2021/06/13 02:35:29;;;;;;;11.23;3.05;;;;;;;18.58;61.66;102050.97;4941592;29;20042;-48
2021/06/13 02:37:57;;;;;;;6.07;2.30;;;;;;;18.49;61.73;102048.34;4939531;29;20043;-43
2021/06/13 02:40:27;;;;;;;11.88;3.80;;;;;;;18.43;61.87;102046.16;4927152;29;20035;-44
2021/06/13 02:42:54;;;;;;;6.95;2.97;;;;;;;18.42;61.65;102048.19;4941525;29;20071;-43
2021/06/13 02:45:24;;;;;;;6.35;3.05;;;;;;;18.34;62.29;102040.78;4939128;29;20564;-44
2021/06/13 02:47:51;;;;;;;6.78;3.33;;;;;;;18.24;62.43;102041.38;4927711;29;20065;-45
2021/06/13 02:50:22;;;;;;;12.80;3.88;;;;;;;18.15;62.99;102035.13;4936042;29;20142;-46
2021/06/13 02:52:55;;;;;;;11.10;2.55;;;;;;;18.07;62.95;102041.75;4948750;29;20051;-42
2021/06/13 02:55:27;;;;;;;10.25;3.28;;;;;;;18.01;63.29;102043.22;4946566;29;20043;-46
2021/06/13 02:58:02;;;;;;;8.10;2.92;;;;;;;17.94;63.64;102037.44;4948373;29;20061;-46
2021/06/13 03:00:30;;;;;;;9.43;2.80;;;;;;;17.88;63.78;102050.09;4940256;29;20047;-44
2021/06/13 03:02:59;;;;;;;17.45;3.60;;;;;;;17.83;63.92;102044.78;4947620;29;20126;-45
2021/06/13 03:05:27;;;;;;;8.40;3.28;;;;;;;17.81;64.03;102038.72;4939041;29;20048;-45
2021/06/13 03:07:55;;;;;;;9.57;2.72;;;;;;;17.79;64.29;102041.88;4942570;29;20051;-45
2021/06/13 03:10:22;;;;;;;12.38;3.53;;;;;;;17.76;64.13;102036.19;4940359;29;20126;-47
2021/06/13 03:12:54;;;;;;;6.40;2.60;;;;;;;17.74;64.40;102038.56;4936072;29;20134;-47
2021/06/13 03:15:22;;;;;;;6.07;2.60;;;;;;;17.70;64.36;102046.03;4941886;29;20052;-46
2021/06/13 03:17:50;;;;;;;11.35;2.75;;;;;;;17.67;64.57;102038.38;4938296;29;20075;-43
2021/06/13 03:20:17;;;;;;;12.95;4.38;;;;;;;17.59;64.73;102038.19;4952698;29;20660;-47
2021/06/13 03:22:45;;;;;;;8.60;3.42;;;;;;;17.57;64.80;102029.34;4938968;29;20056;-45
2021/06/13 03:25:12;;;;;;;10.63;2.70;;;;;;;17.50;65.08;102031.91;4953948;28;20082;-44
2021/06/13 03:27:43;;;;;;;12.30;4.10;;;;;;;17.43;65.39;102031.75;4950417;29;20122;-44
2021/06/13 03:30:11;;;;;;;13.67;4.67;;;;;;;17.41;65.26;102031.28;4956950;29;20142;-49
2021/06/13 03:32:38;;;;;;;12.05;4.50;;;;;;;17.44;65.04;102030.59;4949475;29;20086;-47
2021/06/13 03:35:07;;;;;;;9.93;2.55;;;;;;;17.42;65.41;102026.53;4955590;29;20472;-46
2021/06/13 03:37:36;;;;;;;7.20;3.05;;;;;;;17.38;65.29;102026.41;4940591;29;20158;-47
2021/06/13 03:40:04;;;;;;;14.10;3.50;;;;;;;17.39;65.22;102028.06;4954072;29;20085;-45
2021/06/13 03:42:32;;;;;;;10.38;3.17;;;;;;;17.33;65.44;102020.25;4944174;29;20044;-43
2021/06/13 03:45:00;;;;;;;6.32;2.75;;;;;;;17.30;65.77;102019.00;4939977;29;20044;-43
2021/06/13 03:47:29;;;;;;;7.20;2.28;;;;;;;17.29;65.80;102020.16;4946094;29;20066;-44
2021/06/13 03:49:56;;;;;;;7.35;3.20;;;;;;;17.37;65.73;102019.19;4952760;29;20091;-44
2021/06/13 03:52:23;;;;;;;7.00;2.50;;;;;;;17.36;65.99;102011.97;4944297;29;20110;-44
2021/06/13 03:54:50;;;;;;;5.25;2.65;;;;;;;17.38;66.07;102009.63;4951381;29;20507;-45
2021/06/13 03:57:20;;;;;;;7.93;3.55;;;;;;;17.40;66.18;102012.84;4946553;29;20130;-44
2021/06/13 03:59:47;;;;;;;7.07;3.00;;;;;;;17.42;66.18;102009.72;4953854;29;20079;-46
2021/06/13 04:02:16;;;;;;;10.77;2.67;;;;;;;17.46;66.11;102013.41;4943223;29;20126;-46
2021/06/13 04:04:49;;;;;;;14.77;3.38;;;;;;;17.47;66.14;102017.84;4942942;29;20472;-44
2021/06/13 04:07:18;;;;;;;6.00;2.63;;;;;;;17.54;66.31;102026.44;4922955;29;20142;-44
2021/06/13 04:09:45;;;;;;;8.73;2.30;;;;;;;17.58;65.98;102024.53;4939219;29;20071;-44
2021/06/13 04:12:18;;;;;;;8.80;2.72;;;;;;;17.66;66.17;102022.75;4942679;29;20107;-43
2021/06/13 04:14:47;;;;;;;7.55;2.90;;;;;;;17.79;65.81;102030.66;4951392;29;20051;-45
2021/06/13 04:17:18;;;;;;;10.10;3.05;;;;;;;17.80;65.96;102020.28;4947380;29;20053;-44
2021/06/13 04:19:47;;;;;;;7.03;2.83;;;;;;;17.80;66.00;102020.28;4952612;29;20083;-46
2021/06/13 04:22:17;;;;;;;8.98;2.50;;;;;;;17.78;66.33;102026.25;4951842;29;20079;-43
2021/06/13 04:24:46;;;;;;;9.93;3.08;;;;;;;17.79;66.42;102029.88;4943130;29;20036;-45
2021/06/13 04:27:14;;;;;;;9.13;2.40;;;;;;;17.82;66.31;102040.38;4945245;29;20130;-45
2021/06/13 04:29:41;;;;;;;8.48;3.70;;;;;;;17.89;66.08;102040.53;4954183;29;20066;-44
2021/06/13 04:32:09;;;;;;;8.02;3.45;;;;;;;17.93;66.15;102036.63;4940727;29;20417;-45
2021/06/13 04:34:37;;;;;;;11.20;3.72;;;;;;;17.95;66.08;102045.47;4950228;29;20070;-44
2021/06/13 04:37:06;;;;;;;10.18;2.83;;;;;;;17.98;66.09;102043.94;4942488;29;20122;-43
2021/06/13 04:39:34;;;;;;;8.85;2.60;;;;;;;18.01;65.74;102040.41;4955302;29;20047;-45
2021/06/13 04:42:03;;;;;;;12.20;4.00;;;;;;;18.02;65.77;102039.25;4943588;29;20046;-44
2021/06/13 04:44:30;;;;;;;9.25;2.63;;;;;;;18.07;65.69;102045.38;4947242;29;20055;-43
2021/06/13 04:46:57;;;;;;;9.25;2.92;;;;;;;18.07;65.71;102036.16;4948002;29;20051;-43
2021/06/13 04:49:45;;;;;;;9.70;2.33;;;;;;;18.09;65.86;102045.00;4924697;29;20043;-46
2021/06/13 04:52:14;;;;;;;7.97;2.85;;;;;;;18.11;65.88;102042.63;4951761;29;20085;-43
2021/06/13 04:54:53;;;;;;;7.75;3.22;;;;;;;18.13;65.94;102043.09;4939049;29;20560;-45
2021/06/13 04:57:27;;;;;;;10.30;2.85;;;;;;;18.16;65.99;102036.78;4948288;29;20060;-45
2021/06/13 04:59:54;;;;;;;5.97;2.72;;;;;;;18.15;65.86;102032.34;4944686;29;20196;-44
2021/06/13 05:02:21;;;;;;;12.68;3.40;;;;;;;18.17;65.78;102042.00;4940634;29;20035;-45
2021/06/13 05:04:48;;;;;;;10.48;3.20;;;;;;;18.23;65.63;102045.34;4949451;29;20047;-45
2021/06/13 05:07:15;;;;;;;9.75;3.60;;;;;;;18.29;65.36;102040.25;4951018;29;20055;-43
2021/06/13 05:09:44;;;;;;;10.55;3.13;;;;;;;18.31;65.38;102032.28;4952288;29;20074;-44
2021/06/13 05:12:11;;;;;;;7.47;2.58;;;;;;;18.30;65.53;102039.06;4942473;29;20135;-45
2021/06/13 05:14:39;;;;;;;10.00;3.05;;;;;;;18.26;65.61;102044.63;4948579;29;20489;-43
2021/06/13 05:17:06;;;;;;;10.77;3.85;;;;;;;18.31;65.61;102032.28;4940095;29;20066;-46
2021/06/13 05:19:34;;;;;;;10.07;2.90;;;;;;;18.32;65.56;102034.72;4950395;29;20482;-43
2021/06/13 05:22:07;;;;;;;6.70;2.75;;;;;;;18.37;65.24;102034.44;4954665;29;20055;-44
2021/06/13 05:24:36;;;;;;;21.45;5.03;;;;;;;18.42;65.03;102030.53;4952559;29;20078;-46
2021/06/13 05:27:04;;;;;;;96.60;16.92;;;;;;;18.41;64.80;102026.91;4939369;29;20420;-46
2021/06/13 05:29:31;;;;;;;62.42;13.73;;;;;;;18.39;64.78;102032.09;4948070;29;20134;-48
2021/06/13 05:31:58;;;;;;;48.53;10.52;;;;;;;18.38;65.08;102019.22;4941806;29;20067;-44
2021/06/13 05:34:25;;;;;;;35.85;6.63;;;;;;;18.41;64.82;102024.13;4947234;29;20126;-44
2021/06/13 05:36:52;;;;;;;22.38;4.80;;;;;;;18.46;64.87;102031.41;4943330;29;20131;-44
2021/06/13 05:39:21;;;;;;;12.93;3.75;;;;;;;18.47;64.96;102025.50;4946633;29;20086;-46
2021/06/13 05:41:48;;;;;;;11.25;2.78;;;;;;;18.48;64.97;102027.09;4930543;29;20070;-45
2021/06/13 05:44:15;;;;;;;10.98;2.72;;;;;;;18.47;64.86;102028.28;4954598;29;20049;-45
2021/06/13 05:46:42;;;;;;;8.35;3.33;;;;;;;18.48;64.52;102021.47;4947410;29;20399;-46
2021/06/13 05:49:08;;;;;;;9.90;2.90;;;;;;;18.49;64.64;102016.69;4946692;28;20718;-44
2021/06/13 05:51:36;;;;;;;11.30;2.50;;;;;;;18.51;64.29;102014.31;4948647;29;20094;-44
2021/06/13 05:54:03;;;;;;;8.63;3.22;;;;;;;18.52;64.32;102024.38;4941491;29;20106;-43
2021/06/13 05:56:30;;;;;;;11.07;2.88;;;;;;;18.54;64.73;102017.22;4947003;29;20047;-43
2021/06/13 05:58:56;;;;;;;7.88;2.40;;;;;;;18.57;64.37;102019.28;4942168;29;20051;-44
2021/06/13 06:01:23;;;;;;;9.45;3.00;;;;;;;18.61;64.33;102025.75;4953568;29;20150;-47
2021/06/13 06:03:50;;;;;;;7.70;2.67;;;;;;;18.65;64.53;102023.88;4930890;29;20031;-46
2021/06/13 06:06:20;;;;;;;12.40;4.82;;;;;;;18.65;64.42;102023.88;4941349;29;20118;-44
2021/06/13 06:08:46;;;;;;;8.80;2.75;;;;;;;18.67;64.19;102029.91;4940200;29;20048;-47
2021/06/13 06:11:14;;;;;;;9.27;3.38;;;;;;;18.69;64.25;102024.72;4954405;29;20138;-43
2021/06/13 06:13:40;;;;;;;9.10;2.83;;;;;;;18.72;64.20;102029.63;4940802;29;20103;-46
2021/06/13 06:16:07;;;;;;;7.85;2.70;;;;;;;18.75;63.93;102028.88;4938789;29;20068;-44
2021/06/13 06:18:34;;;;;;;9.88;3.53;;;;;;;18.82;63.79;102025.41;4943776;29;20133;-44
2021/06/13 06:21:01;;;;;;;6.28;2.30;;;;;;;18.85;63.61;102021.84;4948411;29;20493;-44
2021/06/13 06:23:28;;;;;;;14.40;2.67;;;;;;;18.88;63.56;102026.72;4940949;29;20054;-45
2021/06/13 06:25:54;;;;;;;6.00;2.63;;;;;;;18.91;63.58;102020.38;4946756;29;20055;-44
2021/06/13 06:28:23;;;;;;;8.32;2.58;;;;;;;18.95;63.67;102026.88;4941479;29;20489;-46
2021/06/13 06:30:50;;;;;;;14.85;4.15;;;;;;;18.99;63.55;102015.69;4942676;29;20071;-44
2021/06/13 06:33:16;;;;;;;7.43;2.15;;;;;;;19.00;63.59;102017.34;4951290;29;20047;-45
2021/06/13 06:35:43;;;;;;;13.70;3.38;;;;;;;19.05;63.45;102014.22;4939863;29;20132;-44
2021/06/13 06:38:10;;;;;;;9.20;2.97;;;;;;;19.10;63.28;102011.09;4936693;29;20059;-44
2021/06/13 06:40:37;;;;;;;10.82;3.17;;;;;;;19.16;63.35;102012.44;4941568;29;20051;-48
2021/06/13 06:43:04;;;;;;;7.03;3.00;;;;;;;19.16;63.66;102004.00;4944654;29;20043;-44
2021/06/13 06:45:31;;;;;;;7.22;2.75;;;;;;;19.21;63.71;102009.31;4937023;29;20139;-45
2021/06/13 06:48:00;;;;;;;8.20;2.95;;;;;;;19.27;63.58;102010.63;4946759;29;20049;-44
2021/06/13 06:50:28;;;;;;;7.30;2.72;;;;;;;19.38;63.56;102006.84;4946826;29;20046;-45
2021/06/13 06:52:55;;;;;;;15.38;4.68;;;;;;;19.47;63.89;102008.59;4938142;29;20056;-44
2021/06/13 06:55:22;;;;;;;11.02;3.05;;;;;;;19.59;63.53;102011.22;4941687;29;20054;-44
2021/06/13 06:57:49;;;;;;;8.95;3.42;;;;;;;19.67;63.64;102005.31;4936757;29;20055;-45
2021/06/13 07:00:17;;;;;;;14.70;4.60;;;;;;;19.77;63.40;102013.13;4943072;28;20493;-44
2021/06/13 07:02:45;;;;;;;7.15;3.17;;;;;;;19.86;63.21;102013.66;4935028;29;20126;-45
2021/06/13 07:05:13;;;;;;;8.73;2.45;;;;;;;19.85;63.06;102012.06;4942828;29;20043;-46
2021/06/13 07:07:40;;;;;;;6.05;2.45;;;;;;;19.81;63.20;102011.19;4942795;29;20062;-44
2021/06/13 07:10:07;;;;;;;6.40;2.20;;;;;;;19.78;63.33;102016.72;4946104;29;20047;-44
2021/06/13 07:12:34;;;;;;;4.18;1.90;;;;;;;19.80;63.13;102017.97;4932101;29;20382;-44
2021/06/13 07:15:02;;;;;;;4.65;1.95;;;;;;;19.88;63.63;102016.91;4933330;29;20066;-49
2021/06/13 07:17:29;;;;;;;4.53;2.38;;;;;;;19.92;63.51;102011.34;4934481;29;20103;-45
2021/06/13 07:19:56;;;;;;;6.35;1.85;;;;;;;19.95;63.78;102022.66;4952883;29;20150;-44
2021/06/13 07:22:23;;;;;;;4.30;1.90;;;;;;;20.01;63.40;102021.13;4945819;29;20126;-46
2021/06/13 07:24:52;;;;;;;7.13;1.73;;;;;;;20.11;63.78;102016.03;4939766;29;20067;-44
2021/06/13 07:27:20;;;;;;;5.18;2.28;;;;;;;20.23;63.69;102013.00;4942359;29;20107;-44
2021/06/13 07:29:47;;;;;;;5.90;1.98;;;;;;;20.35;63.79;102019.25;4938736;29;20464;-45
2021/06/13 07:32:16;;;;;;;5.63;1.92;;;;;;;20.51;63.69;102007.81;4945882;29;20129;-44
2021/06/13 07:34:43;;;;;;;2.67;1.50;;;;;;;20.68;63.96;102003.59;4944900;29;20040;-49
2021/06/13 07:37:12;;;;;;;3.40;1.83;;;;;;;20.80;64.34;102004.16;4944261;29;20154;-47
2021/06/13 07:39:39;;;;;;;3.15;1.55;;;;;;;20.91;64.73;102002.25;4941354;29;20047;-52
2021/06/13 07:42:08;;;;;;;4.22;1.58;;;;;;;21.17;65.34;101998.53;4953089;29;20079;-46
2021/06/13 07:44:35;;;;;;;4.70;1.33;;;;;;;21.46;65.08;101994.78;4945309;29;20051;-48
2021/06/13 07:47:03;;;;;;;3.03;1.50;;;;;;;21.85;64.52;101997.91;4947490;29;20559;-46
2021/06/13 07:49:30;;;;;;;3.97;1.60;;;;;;;22.25;63.75;101994.97;4948765;29;20726;-46
2021/06/13 07:51:58;;;;;;;1.90;1.30;;;;;;;22.76;62.70;101994.03;4951238;29;20057;-47
2021/06/13 07:54:27;;;;;;;3.30;1.75;;;;;;;23.34;61.07;101994.56;4947218;29;20142;-50
2021/06/13 07:56:54;;;;;;;5.85;1.98;;;;;;;23.85;59.38;101993.38;4932706;29;20071;-48
2021/06/13 07:59:21;;;;;;;5.82;2.13;;;;;;;24.44;58.06;101983.94;4948723;29;20067;-45
2021/06/13 08:01:48;;;;;;;5.97;2.08;;;;;;;24.96;56.36;101986.94;4937257;29;20126;-47
2021/06/13 08:04:15;;;;;;;5.45;1.40;;;;;;;25.46;55.32;101991.06;4947045;29;20046;-48
2021/06/13 08:06:42;;;;;;;3.00;1.40;;;;;;;25.67;53.79;101996.56;4937594;29;20482;-47
2021/06/13 08:09:12;;;;;;;4.63;1.83;;;;;;;25.49;53.10;102000.78;4942361;29;20046;-51
2021/06/13 08:11:39;;;;;;;4.63;1.33;;;;;;;25.31;52.43;101998.06;4941569;29;20385;-47
2021/06/13 08:14:07;;;;;;;4.07;1.63;;;;;;;25.23;52.55;101985.94;4950049;29;20126;-45
2021/06/13 08:16:33;;;;;;;5.13;1.45;;;;;;;25.16;52.43;102002.19;4950436;29;20568;-45
2021/06/13 08:19:00;;;;;;;4.38;1.70;;;;;;;25.06;52.33;101992.56;4948372;29;20051;-49
2021/06/13 08:21:27;;;;;;;3.40;1.33;;;;;;;25.00;52.09;101993.38;4955875;29;20138;-50
2021/06/13 08:23:54;;;;;;;3.55;1.33;;;;;;;24.91;52.06;101996.69;4947252;29;20138;-48
2021/06/13 08:26:21;;;;;;;4.30;1.83;;;;;;;24.83;52.39;101999.97;4955975;29;20074;-46
2021/06/13 08:28:47;;;;;;;3.95;1.38;;;;;;;24.67;52.44;101998.41;4947642;29;20396;-48
2021/06/13 08:31:17;;;;;;;3.97;1.75;;;;;;;24.47;52.89;101991.59;4937636;29;20086;-47
2021/06/13 08:33:44;;;;;;;3.80;2.00;;;;;;;24.31;53.30;101994.09;4938882;29;20043;-47
2021/06/13 08:36:11;;;;;;;6.18;1.52;;;;;;;24.19;53.68;101994.53;4922729;29;20052;-45
2021/06/13 08:38:38;;;;;;;4.57;2.35;;;;;;;24.11;54.18;101990.13;4938357;29;20052;-50
2021/06/13 08:41:04;;;;;;;4.68;1.50;;;;;;;24.00;54.07;101992.94;4933955;29;20050;-47
2021/06/13 08:43:32;;;;;;;3.97;1.75;;;;;;;23.88;54.34;101984.06;4935989;29;20150;-48
2021/06/13 08:46:01;;;;;;;7.90;3.15;;;;;;;23.84;54.53;101984.06;4939804;29;20106;-46
2021/06/13 08:48:30;;;;;;;8.52;1.80;;;;;;;23.82;54.57;101988.50;4946167;29;20755;-48
2021/06/13 08:51:02;;;;;;;5.20;1.50;;;;;;;23.80;55.06;101985.28;4928496;29;20122;-48
2021/06/13 08:53:29;;;;;;;;;;;;;;;23.76;55.12;101990.13;4929907;29;20077;-51
2021/06/13 08:55:56;;;;;;;4.63;2.00;;;;;;;23.89;55.00;101985.66;4933687;29;20620;-48
2021/06/13 08:58:23;;;;;;;3.78;2.00;;;;;;;23.91;55.13;101989.69;4932446;29;20139;-49
2021/06/13 09:00:50;;;;;;;5.63;1.85;;;;;;;23.93;55.26;101989.31;4933854;29;20738;-45
2021/06/13 09:03:19;;;;;;;5.30;1.92;;;;;;;23.91;55.27;101983.22;4935796;29;20052;-45
2021/06/13 09:05:46;;;;;;;5.40;2.13;;;;;;;23.91;55.42;101986.06;4934110;29;20050;-49
2021/06/13 09:08:13;;;;;;;4.18;1.65;;;;;;;23.87;55.50;101982.44;4933739;29;20163;-48
2021/06/13 09:10:46;;;;;;;4.07;1.83;;;;;;;23.78;55.63;101980.03;4941163;29;20063;-49
2021/06/13 09:13:12;;;;;;;6.43;1.90;;;;;;;23.71;55.67;101973.56;4933310;29;20154;-48
2021/06/13 09:15:41;;;;;;;7.95;2.88;;;;;;;23.66;55.63;101969.13;4938226;29;20516;-49
2021/06/13 09:18:10;;;;;;;6.85;1.85;;;;;;;23.63;55.85;101970.75;4938860;29;20040;-48
2021/06/13 09:20:43;;;;;;;4.65;1.70;;;;;;;23.57;55.65;101968.72;4943375;29;20043;-47
2021/06/13 09:23:17;;;;;;;5.57;1.77;;;;;;;23.48;56.00;101960.66;4921356;29;20043;-46
2021/06/13 09:25:45;;;;;;;6.13;1.73;;;;;;;23.40;56.23;101964.72;4941123;29;20445;-48
2021/06/13 09:28:18;;;;;;;6.13;1.83;;;;;;;23.35;56.47;101962.22;4938368;29;20035;-45
2021/06/13 09:30:48;;;;;;;9.32;1.85;;;;;;;23.36;56.84;101958.22;4942821;29;20051;-46
2021/06/13 09:33:23;;;;;;;3.83;2.40;;;;;;;23.34;57.13;101954.97;4939515;29;20167;-49
2021/06/13 09:35:51;;;;;;;9.13;2.40;;;;;;;23.38;56.90;101957.81;4940898;29;20122;-46
2021/06/13 09:38:19;;;;;;;5.10;1.90;;;;;;;23.40;56.74;101959.06;4937076;29;20047;-49
2021/06/13 09:40:57;;;;;;;4.85;1.52;;;;;;;23.44;56.48;101953.38;4942034;29;20090;-47
2021/06/13 09:43:51;;;;;;;5.55;1.77;;;;;;;23.33;56.73;101953.34;4941613;29;20035;-44
2021/06/13 09:46:19;;;;;;;6.03;1.70;;;;;;;23.33;56.85;101947.69;4925225;29;20051;-48
2021/06/13 09:48:49;;;;;;;3.03;1.27;;;;;;;23.33;57.05;101950.53;4941705;29;20046;-48
2021/06/13 09:51:18;;;;;;;4.50;1.90;;;;;;;23.31;57.42;101943.66;4928606;29;20138;-46
2021/06/13 09:53:50;;;;;;;4.15;1.98;;;;;;;23.29;57.12;101944.09;4932173;29;20078;-49
2021/06/13 09:56:21;;;;;;;3.22;1.48;;;;;;;23.25;57.61;101939.63;4924444;29;20071;-46
2021/06/13 09:58:59;;;;;;;5.75;1.85;;;;;;;23.29;58.13;101935.59;4919768;29;20130;-49
2021/06/13 10:01:42;;;;;;;4.32;1.90;;;;;;;23.29;58.00;101941.25;4932697;29;20051;-47
2021/06/13 10:04:22;;;;;;;13.88;2.70;;;;;;;23.28;58.33;101938.81;4930760;29;20051;-51
2021/06/13 10:07:01;;;;;;;5.38;2.22;;;;;;;23.28;58.08;101936.81;4932591;29;20139;-45
2021/06/13 10:09:42;;;;;;;9.27;1.90;;;;;;;23.23;58.39;101942.88;4908172;29;20408;-49
2021/06/13 10:12:11;;;;;;;4.65;1.95;;;;;;;23.23;58.53;101947.69;4914066;29;20054;-47
2021/06/13 10:14:39;;;;;;;2.85;1.60;;;;;;;23.29;58.30;101938.44;4931266;29;20075;-49
2021/06/13 10:17:06;;;;;;;3.58;1.48;;;;;;;23.25;57.98;101940.44;4932185;29;20087;-47
2021/06/13 10:19:38;;;;;;;5.50;1.52;;;;;;;23.19;57.87;101935.59;4931808;29;20394;-47
2021/06/13 10:22:06;;;;;;;1.63;0.93;;;;;;;23.19;57.41;101930.78;4936031;29;20096;-47
2021/06/13 10:24:35;;;;;;;3.35;1.55;;;;;;;23.17;57.54;101932.34;4932716;29;20075;-47
2021/06/13 10:27:07;;;;;;;3.20;0.90;;;;;;;23.17;57.20;101929.53;4931671;29;20537;-45
2021/06/13 10:29:40;;;;;;;2.38;0.98;;;;;;;23.12;57.52;101916.63;4932777;29;20138;-48
2021/06/13 10:32:09;;;;;;;1.23;0.73;;;;;;;23.17;57.23;101916.22;4924361;29;20505;-48
2021/06/13 10:34:37;;;;;;;2.33;1.17;;;;;;;23.18;57.22;101917.84;4930957;29;20043;-47
2021/06/13 10:37:07;;;;;;;2.00;1.20;;;;;;;23.15;57.91;101918.63;4931286;29;20081;-47
2021/06/13 10:39:35;;;;;;;3.55;1.48;;;;;;;23.21;57.56;101921.88;4914767;29;20074;-45
2021/06/13 10:42:09;;;;;;;3.25;1.30;;;;;;;23.23;57.92;101917.44;4930794;29;20126;-46
2021/06/13 10:44:47;;;;;;;2.70;1.08;;;;;;;23.20;59.11;101926.72;4929299;29;20094;-51
2021/06/13 10:47:17;;;;;;;5.65;1.40;;;;;;;23.22;58.23;101915.81;4924646;29;20091;-46
2021/06/13 10:49:59;;;;;;;2.88;1.50;;;;;;;23.25;58.46;101906.53;4913282;29;20505;-46
2021/06/13 10:52:27;;;;;;;5.70;1.55;;;;;;;23.36;58.42;101915.81;4930082;29;20126;-47
2021/06/13 10:54:55;;;;;;;7.38;1.58;;;;;;;23.48;58.18;101918.25;4915060;29;20051;-50
2021/06/13 10:57:24;;;;;;;2.53;1.17;;;;;;;23.67;57.66;101916.22;4930600;29;20058;-47
2021/06/13 10:59:56;;;;;;;3.80;1.25;;;;;;;;;;4930732;29;20047;-46
2021/06/13 11:02:38;;;;;;;1.63;0.90;;;;;;;23.96;57.47;101917.78;4931352;29;20175;-50
2021/06/13 11:05:08;;;;;;;2.92;1.40;;;;;;;23.99;56.96;101914.09;4930799;29;20048;-46
2021/06/13 11:10:05;;;;;;;3.85;1.13;;;;;;;24.07;56.67;101907.22;4940637;29;20130;-48
2021/06/13 11:13:00;;;;;;;5.85;1.10;;;;;;;24.12;55.84;101909.66;4942990;29;20039;-49
2021/06/13 11:15:38;;;;;;;6.60;1.35;;;;;;;24.19;56.33;101903.97;4924777;29;20052;-46
2021/06/13 11:18:14;;;;;;;8.70;1.65;;;;;;;24.29;55.52;101905.13;4936862;29;20080;-46
2021/06/13 11:21:01;;;;;;;5.75;1.27;;;;;;;24.36;55.60;101903.06;4932456;29;20071;-48
2021/06/13 11:23:28;;;;;;;3.33;1.88;;;;;;;24.41;55.81;101896.19;4946693;29;20035;-48
2021/06/13 11:25:57;;;;;;;3.60;1.10;;;;;;;24.40;55.57;101898.22;4931639;29;20079;-49
2021/06/13 11:28:30;;;;;;;3.10;1.20;;;;;;;24.40;55.22;101901.06;4944787;29;20569;-47
2021/06/13 11:31:09;;;;;;;4.95;1.10;;;;;;;24.43;54.62;101896.59;4929741;29;20120;-46
2021/06/13 11:33:38;;;;;;;6.03;1.50;;;;;;;24.59;54.69;101883.56;4931975;29;20098;-47
2021/06/13 11:36:29;;;;;;;7.65;1.40;;;;;;;24.71;54.28;101897.22;4909315;29;20142;-48
2021/06/13 11:39:02;;;;;;;4.22;0.90;;;;;;;24.84;54.08;101891.91;4923570;29;20055;-46